Time,TemperatureF,DewpointF,PressureIn,WindDirection,WindDirectionDegrees,WindSpeedMPH,WindSpeedGustMPH,Humidity,HourlyPrecipIn,Conditions,Clouds,dailyrainin,SoftwareType,DateUTC
2013-08-01 00:00:00,82.8,74.9,30.06,SE,144,5.0,7.0,77,0.00,FEW,SCT,0.00,WeatherDisplay:10.37,2013-08-01 04:00:00,
2013-08-01 00:01:00,82.8,74.8,30.06,SE,135,6.9,6.9,77,0.00,FEW,SCT,0.00,WeatherDisplay:10.37,2013-08-01 04:01:00,
2013-08-01 00:02:00,82.8,74.8,30.06,SSE,158,3.8,3.8,77,0.00,FEW,SCT,0.00,WeatherDisplay:10.37,2013-08-01 04:02:00,
2013-08-01 00:03:00,82.8,74.8,30.06,NE,45,5.8,5.8,77,0.00,FEW,SCT,0.00,WeatherDisplay:10.37,2013-08-01 04:03:00,
2013-08-01 00:05:00,82.8,74.8,30.06,SSE,158,3.8,3.8,77,0.00,SCT,,0.00,WeatherDisplay:10.37,2013-08-01 04:05:00,
2013-08-01 00:10:00,82.6,74.7,30.06,South,180,5.4,5.4,77,0.00,SCT,,0.00,WeatherDisplay:10.37,2013-08-01 04:10:00,
2013-08-01 00:15:00,82.6,74.7,30.05,SE,135,6.9,6.9,77,0.00,SCT,,0.00,WeatherDisplay:10.37,2013-08-01 04:15:00,
2013-08-01 00:20:00,82.6,74.7,30.05,SW,225,4.6,4.6,77,0.00,SCT,,0.00,WeatherDisplay:10.37,2013-08-01 04:20:00,
2013-08-01 00:26:00,82.6,74.7,30.05,WSW,248,4.6,4.6,77,0.00,SCT,,0.00,WeatherDisplay:10.37,2013-08-01 04:26:00,
2013-08-01 00:31:00,82.6,74.7,30.05,ESE,112,5.9,5.9,77,0.00,SCT,,0.00,WeatherDisplay:10.37,2013-08-01 04:31:00,
2013-08-01 00:36:00,82.6,74.7,30.05,East,90,8.1,8.1,77,0.00,SCT,,0.00,WeatherDisplay:10.37,2013-08-01 04:36:00,
2013-08-01 00:41:00,82.6,74.7,30.05,East,90,6.9,6.9,77,0.00,SCT,,0.00,WeatherDisplay:10.37,2013-08-01 04:41:00,
2013-08-01 00:46:00,82.6,74.7,30.05,ESE,112,6.9,6.9,77,0.00,SCT,,0.00,WeatherDisplay:10.37,2013-08-01 04:46:00,
2013-08-01 00:51:00,82.6,74.7,30.05,South,180,3.8,3.8,77,0.00,SCT,,0.00,WeatherDisplay:10.37,2013-08-01 04:51:00,
2013-08-01 00:56:00,82.6,74.7,30.05,ESE,112,5.9,5.9,77,0.00,SCT,,0.00,WeatherDisplay:10.37,2013-08-01 04:56:00,
2013-08-01 01:01:00,82.6,74.7,30.05,ESE,112,4.6,4.6,77,0.00,SCT,,0.00,WeatherDisplay:10.37,2013-08-01 05:01:00,
2013-08-01 01:06:00,82.6,74.7,30.04,WSW,248,3.3,3.3,77,0.00,SCT,,0.00,WeatherDisplay:10.37,2013-08-01 05:06:00,
2013-08-01 01:11:00,82.6,75.0,30.04,ESE,112,5.9,5.9,78,0.00,SCT,,0.00,WeatherDisplay:10.37,2013-08-01 05:11:00,
2013-08-01 01:17:00,82.6,74.7,30.03,ENE,68,6.9,6.9,77,0.00,SCT,,0.00,WeatherDisplay:10.37,2013-08-01 05:17:00,
2013-08-01 01:22:00,82.6,74.7,30.03,ESE,112,5.4,5.4,77,0.00,SCT,,0.00,WeatherDisplay:10.37,2013-08-01 05:22:00,
2013-08-01 01:27:00,82.4,74.5,30.03,East,90,6.9,6.9,77,0.00,SCT,,0.00,WeatherDisplay:10.37,2013-08-01 05:27:00,
2013-08-01 01:32:00,82.4,74.5,30.03,ESE,112,6.9,6.9,77,0.00,SCT,,0.00,WeatherDisplay:10.37,2013-08-01 05:32:00,
2013-08-01 01:37:00,82.4,74.5,30.03,SE,135,4.6,4.6,77,0.00,SCT,,0.00,WeatherDisplay:10.37,2013-08-01 05:37:00,
2013-08-01 01:42:00,82.2,74.3,30.03,SSW,202,3.5,3.5,77,0.00,SCT,,0.00,WeatherDisplay:10.37,2013-08-01 05:42:00,
2013-08-01 01:47:00,82.0,74.5,30.03,SW,225,6.9,6.9,78,0.00,SCT,,0.00,WeatherDisplay:10.37,2013-08-01 05:47:00,
2013-08-01 01:52:00,82.0,74.5,30.03,South,180,4.6,4.6,78,0.00,SCT,,0.00,WeatherDisplay:10.37,2013-08-01 05:52:00,
2013-08-01 01:57:00,82.0,74.5,30.03,South,180,5.8,5.8,78,0.00,SCT,,0.00,WeatherDisplay:10.37,2013-08-01 05:57:00,
2013-08-01 02:02:00,82.0,74.5,30.02,ESE,112,4.6,4.6,78,0.00,SCT,,0.00,WeatherDisplay:10.37,2013-08-01 06:02:00,
2013-08-01 02:07:00,81.9,74.0,30.02,SSE,158,4.8,4.8,77,0.00,SCT,,0.00,WeatherDisplay:10.37,2013-08-01 06:07:00,
2013-08-01 02:13:00,81.9,74.0,30.02,SE,135,3.5,3.5,77,0.00,SCT,,0.00,WeatherDisplay:10.37,2013-08-01 06:13:00,
2013-08-01 02:18:00,81.9,74.4,30.02,South,180,4.6,4.6,78,0.00,SCT,,0.00,WeatherDisplay:10.37,2013-08-01 06:18:00,
2013-08-01 02:23:00,81.7,74.2,30.02,South,180,2.7,2.7,78,0.00,SCT,,0.00,WeatherDisplay:10.37,2013-08-01 06:23:00,
2013-08-01 02:28:00,81.5,74.0,30.01,South,180,3.5,3.5,78,0.00,SCT,,0.00,WeatherDisplay:10.37,2013-08-01 06:28:00,
2013-08-01 02:33:00,81.5,74.0,30.01,NNE,22,2.3,2.3,78,0.00,SCT,,0.00,WeatherDisplay:10.37,2013-08-01 06:33:00,
2013-08-01 02:38:00,81.5,74.0,30.00,South,180,4.6,4.6,78,0.00,SCT,,0.00,WeatherDisplay:10.37,2013-08-01 06:38:00,
2013-08-01 02:43:00,81.5,74.0,30.00,South,180,4.6,4.6,78,0.00,SCT,,0.00,WeatherDisplay:10.37,2013-08-01 06:43:00,
2013-08-01 02:48:00,81.1,74.0,30.00,SSW,202,3.3,3.3,79,0.00,SCT,,0.00,WeatherDisplay:10.37,2013-08-01 06:48:00,
2013-08-01 02:53:00,81.0,74.2,30.00,East,90,2.7,2.7,80,0.00,SCT,,0.00,WeatherDisplay:10.37,2013-08-01 06:53:00,
2013-08-01 02:58:00,80.8,74.4,30.00,South,180,3.5,3.5,81,0.00,SCT,,0.00,WeatherDisplay:10.37,2013-08-01 06:58:00,
2013-08-01 03:03:00,80.8,74.4,29.99,NNE,22,4.6,4.6,81,0.00,SCT,,0.00,WeatherDisplay:10.37,2013-08-01 07:03:00,
2013-08-01 03:08:00,80.8,74.4,29.99,NNE,22,5.8,5.8,81,0.00,SCT,,0.00,WeatherDisplay:10.37,2013-08-01 07:08:00,
2013-08-01 03:13:00,81.0,74.6,29.99,South,180,3.5,3.5,81,0.00,SCT,,0.00,WeatherDisplay:10.37,2013-08-01 07:13:00,
2013-08-01 03:18:00,81.0,74.6,29.99,NE,45,3.8,3.8,81,0.00,SCT,,0.00,WeatherDisplay:10.37,2013-08-01 07:18:00,
2013-08-01 03:24:00,80.8,74.4,29.99,SE,135,4.8,4.8,81,0.00,SCT,,0.00,WeatherDisplay:10.37,2013-08-01 07:24:00,
2013-08-01 03:29:00,80.8,74.4,29.98,ESE,112,3.8,3.8,81,0.00,SCT,,0.00,WeatherDisplay:10.37,2013-08-01 07:29:00,
2013-08-01 03:34:00,80.6,74.2,29.98,East,90,2.7,2.7,81,0.00,SCT,,0.00,WeatherDisplay:10.37,2013-08-01 07:34:00,
2013-08-01 03:39:00,80.6,74.6,29.98,West,270,2.7,2.7,82,0.00,SCT,,0.00,WeatherDisplay:10.37,2013-08-01 07:39:00,
2013-08-01 03:44:00,80.6,74.6,29.98,NE,45,3.3,3.3,82,0.00,SCT,,0.00,WeatherDisplay:10.37,2013-08-01 07:44:00,
2013-08-01 03:49:00,80.4,74.8,29.98,ESE,112,5.4,5.4,83,0.00,SCT,,0.00,WeatherDisplay:10.37,2013-08-01 07:49:00,
2013-08-01 03:55:00,80.4,74.8,29.98,SE,125,1.0,6.0,83,0.00,SCT,SCT,0.00,WeatherDisplay:10.37,2013-08-01 07:55:00,
2013-08-01 04:00:00,80.4,74.8,29.98,East,85,3.0,6.0,83,0.00,SCT,SCT,0.00,WeatherDisplay:10.37,2013-08-01 08:00:00,
2013-08-01 04:05:00,80.4,74.8,29.97,East,96,2.0,5.0,83,0.00,SCT,SCT,0.00,WeatherDisplay:10.37,2013-08-01 08:05:00,
2013-08-01 04:10:00,80.4,74.8,29.97,SSW,202,3.5,0.0,83,0.00,BKN,SCT,0.00,WeatherDisplay:10.37,2013-08-01 08:10:00,
2013-08-01 04:15:00,80.4,74.8,29.97,SSE,158,5.8,5.8,83,0.00,BKN,SCT,0.00,WeatherDisplay:10.37,2013-08-01 08:15:00,
2013-08-01 04:20:00,80.4,74.4,29.97,SW,225,5.8,5.8,82,0.00,BKN,SCT,0.00,WeatherDisplay:10.37,2013-08-01 08:20:00,
2013-08-01 04:25:00,80.6,74.2,29.97,South,180,5.8,5.8,81,0.00,BKN,SCT,0.00,WeatherDisplay:10.37,2013-08-01 08:25:00,
2013-08-01 04:30:00,80.6,74.2,29.97,SSE,158,4.3,4.3,81,0.00,BKN,SCT,0.00,WeatherDisplay:10.37,2013-08-01 08:30:00,
2013-08-01 04:35:00,80.6,74.2,29.97,South,180,2.3,2.3,81,0.00,BKN,SCT,0.00,WeatherDisplay:10.37,2013-08-01 08:35:00,
2013-08-01 04:40:00,80.6,74.2,29.97,SSE,158,4.8,4.8,81,0.00,BKN,SCT,0.00,WeatherDisplay:10.37,2013-08-01 08:40:00,
2013-08-01 04:46:00,80.6,74.2,29.97,ESE,112,4.6,4.6,81,0.00,BKN,SCT,0.00,WeatherDisplay:10.37,2013-08-01 08:46:00,
2013-08-01 04:52:00,80.6,74.2,29.97,North,360,5.8,5.8,81,0.00,BKN,SCT,0.00,WeatherDisplay:10.37,2013-08-01 08:52:00,
2013-08-01 04:57:00,80.6,74.2,29.97,SSE,158,5.8,5.8,81,0.00,BKN,SCT,0.00,WeatherDisplay:10.37,2013-08-01 08:57:00,
2013-08-01 05:02:00,80.6,74.2,29.96,SSE,158,3.8,3.8,81,0.00,BKN,SCT,0.00,WeatherDisplay:10.37,2013-08-01 09:02:00,
2013-08-01 05:08:00,80.4,74.0,29.96,East,90,5.8,5.8,81,0.00,SCT,,0.00,WeatherDisplay:10.37,2013-08-01 09:08:00,
2013-08-01 05:14:00,80.4,74.0,29.97,South,180,4.8,4.8,81,0.00,SCT,,0.00,WeatherDisplay:10.37,2013-08-01 09:14:00,
2013-08-01 05:19:00,80.4,74.0,29.97,South,180,4.6,4.6,81,0.00,SCT,,0.00,WeatherDisplay:10.37,2013-08-01 09:19:00,
2013-08-01 05:24:00,80.4,74.0,29.97,ENE,68,4.6,4.6,81,0.00,SCT,,0.00,WeatherDisplay:10.37,2013-08-01 09:24:00,
2013-08-01 05:29:00,80.2,73.5,29.96,NNE,22,4.6,4.6,80,0.00,SCT,,0.00,WeatherDisplay:10.37,2013-08-01 09:29:00,
2013-08-01 05:35:00,80.2,73.5,29.96,ESE,112,3.5,3.5,80,0.00,SCT,,0.00,WeatherDisplay:10.37,2013-08-01 09:35:00,
2013-08-01 05:40:00,80.2,73.5,29.97,SE,135,4.6,4.6,80,0.00,SCT,,0.00,WeatherDisplay:10.37,2013-08-01 09:40:00,
2013-08-01 05:45:00,80.2,73.5,29.97,ENE,68,4.6,4.6,80,0.00,SCT,,0.00,WeatherDisplay:10.37,2013-08-01 09:45:00,
2013-08-01 05:50:00,80.2,73.8,29.97,ESE,112,3.5,3.5,81,0.00,SCT,,0.00,WeatherDisplay:10.37,2013-08-01 09:50:00,
2013-08-01 05:57:00,80.2,73.8,29.97,SSE,158,5.8,5.8,81,0.00,SCT,,0.00,WeatherDisplay:10.37,2013-08-01 09:57:00,
2013-08-01 06:02:00,80.2,73.5,29.97,NE,45,5.9,5.9,80,0.00,SCT,,0.00,WeatherDisplay:10.37,2013-08-01 10:02:00,
2013-08-01 06:08:00,80.2,73.5,29.97,NE,45,4.8,4.8,80,0.00,SCT,,0.00,WeatherDisplay:10.37,2013-08-01 10:08:00,
2013-08-01 06:14:00,80.4,73.7,29.97,NNE,22,5.8,5.8,80,0.00,SCT,,0.00,WeatherDisplay:10.37,2013-08-01 10:14:00,
2013-08-01 06:20:00,80.4,73.7,29.97,ESE,106,5.0,7.0,80,0.00,SCT,SCT,0.00,WeatherDisplay:10.37,2013-08-01 10:20:00,
2013-08-01 06:25:00,80.4,73.7,29.97,ESE,103,2.0,7.0,80,0.00,SCT,SCT,0.00,WeatherDisplay:10.37,2013-08-01 10:25:00,
2013-08-01 06:30:00,80.4,73.7,29.97,SE,135,6.9,6.9,80,0.00,SCT,,0.00,WeatherDisplay:10.37,2013-08-01 10:30:00,
2013-08-01 06:35:00,80.6,73.9,29.97,East,90,4.6,4.6,80,0.00,SCT,,0.00,WeatherDisplay:10.37,2013-08-01 10:35:00,
2013-08-01 06:40:00,80.6,73.9,29.98,ESE,112,6.9,6.9,80,0.00,SCT,,0.00,WeatherDisplay:10.37,2013-08-01 10:40:00,
2013-08-01 06:45:00,80.6,73.9,29.98,West,270,4.8,4.8,80,0.00,SCT,,0.00,WeatherDisplay:10.37,2013-08-01 10:45:00,
2013-08-01 06:50:00,80.8,74.0,29.98,SSE,158,9.2,9.2,80,0.00,SCT,,0.00,WeatherDisplay:10.37,2013-08-01 10:50:00,
2013-08-01 06:55:00,81.0,73.9,29.98,ESE,112,6.9,6.9,79,0.00,SCT,,0.00,WeatherDisplay:10.37,2013-08-01 10:55:00,
2013-08-01 07:03:00,81.0,73.9,29.98,East,90,5.8,5.8,79,0.00,SCT,,0.00,WeatherDisplay:10.37,2013-08-01 11:03:00,
2013-08-01 07:08:00,81.0,73.9,29.98,SSE,158,6.9,6.9,79,0.00,BKN,SCT,0.00,WeatherDisplay:10.37,2013-08-01 11:08:00,
2013-08-01 07:13:00,81.1,74.0,29.99,SE,135,5.8,5.8,79,0.00,BKN,SCT,0.00,WeatherDisplay:10.37,2013-08-01 11:13:00,
2013-08-01 07:18:00,81.3,74.2,29.99,SE,135,5.8,5.8,79,0.00,BKN,SCT,0.00,WeatherDisplay:10.37,2013-08-01 11:18:00,
2013-08-01 07:24:00,81.5,74.4,29.99,ENE,68,6.9,6.9,79,0.00,BKN,SCT,0.00,WeatherDisplay:10.37,2013-08-01 11:24:00,
2013-08-01 07:30:00,81.5,74.4,29.99,South,180,8.1,8.1,79,0.00,BKN,SCT,0.00,WeatherDisplay:10.37,2013-08-01 11:30:00,
2013-08-01 07:36:00,81.9,74.4,29.99,ESE,112,5.8,5.8,78,0.00,BKN,SCT,0.00,WeatherDisplay:10.37,2013-08-01 11:36:00,
2013-08-01 07:41:00,82.8,74.5,29.99,NE,45,4.6,4.6,76,0.00,BKN,SCT,0.00,WeatherDisplay:10.37,2013-08-01 11:41:00,
2013-08-01 07:46:00,83.5,74.7,29.99,ESE,112,3.5,3.5,75,0.00,BKN,SCT,0.00,WeatherDisplay:10.37,2013-08-01 11:46:00,
2013-08-01 07:51:00,83.5,75.1,29.99,SW,225,4.6,4.6,76,0.00,BKN,SCT,0.00,WeatherDisplay:10.37,2013-08-01 11:51:00,
2013-08-01 07:56:00,83.5,74.3,29.99,ESE,112,5.8,5.8,74,0.00,BKN,SCT,0.00,WeatherDisplay:10.37,2013-08-01 11:56:00,
2013-08-01 08:02:00,84.0,74.8,30.00,SE,135,4.6,4.6,74,0.00,BKN,SCT,0.00,WeatherDisplay:10.37,2013-08-01 12:02:00,
2013-08-01 08:07:00,84.2,74.6,30.00,SSW,202,6.9,6.9,73,0.00,SCT,,0.00,WeatherDisplay:10.37,2013-08-01 12:07:00,
2013-08-01 08:12:00,84.2,74.6,30.00,ESE,112,6.9,6.9,73,0.00,SCT,,0.00,WeatherDisplay:10.37,2013-08-01 12:12:00,
2013-08-01 08:17:00,85.3,75.2,30.00,ESE,112,5.9,5.9,72,0.00,SCT,,0.00,WeatherDisplay:10.37,2013-08-01 12:17:00,
2013-08-01 08:23:00,86.5,75.5,30.00,East,90,4.8,4.8,70,0.00,SCT,,0.00,WeatherDisplay:10.37,2013-08-01 12:23:00,
2013-08-01 08:29:00,87.6,76.2,30.00,SSW,202,2.3,2.3,69,0.00,SCT,,0.00,WeatherDisplay:10.37,2013-08-01 12:29:00,
2013-08-01 08:34:00,88.5,76.1,30.00,ESE,112,3.8,3.8,67,0.00,SCT,,0.00,WeatherDisplay:10.37,2013-08-01 12:34:00,
2013-08-01 08:39:00,89.4,76.1,30.01,ENE,68,6.9,6.9,65,0.00,SCT,,0.00,WeatherDisplay:10.37,2013-08-01 12:39:00,
2013-08-01 08:44:00,89.8,76.0,30.01,SE,135,6.9,6.9,64,0.00,SCT,,0.00,WeatherDisplay:10.37,2013-08-01 12:44:00,
2013-08-01 08:49:00,88.3,75.5,30.01,SW,225,3.5,3.5,66,0.00,SCT,,0.00,WeatherDisplay:10.37,2013-08-01 12:49:00,
2013-08-01 08:54:00,89.6,75.8,30.01,SSE,158,5.4,5.4,64,0.00,SCT,,0.00,WeatherDisplay:10.37,2013-08-01 12:54:00,
2013-08-01 08:59:00,89.8,76.0,30.01,SSE,158,5.9,5.9,64,0.00,SCT,,0.00,WeatherDisplay:10.37,2013-08-01 12:59:00,
2013-08-01 09:04:00,90.7,76.4,30.01,SSE,158,8.1,8.1,63,0.00,SCT,,0.00,WeatherDisplay:10.37,2013-08-01 13:04:00,
2013-08-01 09:09:00,91.4,77.0,30.01,SE,135,3.5,3.5,63,0.00,SCT,,0.00,WeatherDisplay:10.37,2013-08-01 13:09:00,
2013-08-01 09:14:00,89.4,76.1,30.01,NE,45,6.4,6.4,65,0.00,SCT,,0.00,WeatherDisplay:10.37,2013-08-01 13:14:00,
2013-08-01 09:19:00,90.1,76.3,30.01,East,90,5.8,5.8,64,0.00,SCT,,0.00,WeatherDisplay:10.37,2013-08-01 13:19:00,
2013-08-01 09:25:00,90.0,76.2,30.01,East,98,5.0,8.0,64,0.00,SCT,SCT,0.00,WeatherDisplay:10.37,2013-08-01 13:25:00,
2013-08-01 09:30:00,90.9,77.0,30.01,ESE,121,2.0,7.0,64,0.00,SCT,SCT,0.00,WeatherDisplay:10.37,2013-08-01 13:30:00,
2013-08-01 09:35:00,92.1,76.7,30.01,NE,45,5.8,5.8,61,0.00,SCT,,0.00,WeatherDisplay:10.37,2013-08-01 13:35:00,
2013-08-01 09:40:00,92.5,77.1,30.01,NNW,338,4.3,4.3,61,0.00,SCT,,0.00,WeatherDisplay:10.37,2013-08-01 13:40:00,
2013-08-01 09:45:00,88.9,76.5,30.01,ENE,68,5.8,5.8,67,0.00,SCT,,0.00,WeatherDisplay:10.37,2013-08-01 13:45:00,
2013-08-01 09:51:00,89.1,76.7,30.01,ESE,112,4.6,4.6,67,0.00,SCT,,0.00,WeatherDisplay:10.37,2013-08-01 13:51:00,
2013-08-01 09:56:00,88.7,76.3,30.01,East,90,8.1,8.1,67,0.00,SCT,,0.00,WeatherDisplay:10.37,2013-08-01 13:56:00,
2013-08-01 10:01:00,88.7,75.9,30.01,East,90,6.9,6.9,66,0.00,SCT,,0.00,WeatherDisplay:10.37,2013-08-01 14:01:00,
2013-08-01 10:07:00,89.1,76.7,30.01,ESE,112,5.9,5.9,67,0.00,BKN,SCT,0.00,WeatherDisplay:10.37,2013-08-01 14:07:00,
2013-08-01 10:12:00,89.4,76.5,30.01,North,360,5.8,5.8,66,0.00,BKN,SCT,0.00,WeatherDisplay:10.37,2013-08-01 14:12:00,
2013-08-01 10:17:00,89.2,75.9,30.02,SW,225,5.8,5.8,65,0.00,BKN,SCT,0.00,WeatherDisplay:10.37,2013-08-01 14:17:00,
2013-08-01 10:23:00,89.2,75.9,30.02,West,270,5.8,5.8,65,0.00,BKN,SCT,0.00,WeatherDisplay:10.37,2013-08-01 14:23:00,
2013-08-01 10:30:00,89.7,75.9,30.02,ESE,105,3.0,6.0,64,0.00,BKN,SCT,0.00,WeatherDisplay:10.37,2013-08-01 14:30:00,
2013-08-01 10:35:00,90.6,76.8,30.02,SE,130,3.0,6.0,64,0.00,BKN,SCT,0.00,WeatherDisplay:10.37,2013-08-01 14:35:00,
2013-08-01 10:40:00,89.6,75.3,30.02,SSW,202,5.8,5.8,63,0.00,BKN,SCT,0.00,WeatherDisplay:10.37,2013-08-01 14:40:00,
2013-08-01 10:45:00,90.0,75.7,30.02,NNE,22,6.9,6.9,63,0.00,BKN,SCT,0.00,WeatherDisplay:10.37,2013-08-01 14:45:00,
2013-08-01 10:50:00,90.1,75.8,30.02,East,90,6.4,6.4,63,0.00,BKN,SCT,0.00,WeatherDisplay:10.37,2013-08-01 14:50:00,
2013-08-01 10:55:00,90.1,75.8,30.02,SSE,158,6.9,6.9,63,0.00,BKN,SCT,0.00,WeatherDisplay:10.37,2013-08-01 14:55:00,
2013-08-01 11:00:00,90.7,76.4,30.02,NE,45,5.4,5.4,63,0.00,BKN,SCT,0.00,WeatherDisplay:10.37,2013-08-01 15:00:00,
2013-08-01 11:05:00,90.3,76.0,30.02,ESE,112,5.8,5.8,63,0.00,BKN,SCT,0.00,WeatherDisplay:10.37,2013-08-01 15:05:00,
2013-08-01 11:12:00,90.3,75.5,30.02,NW,315,5.9,5.9,62,0.00,BKN,SCT,0.00,WeatherDisplay:10.37,2013-08-01 15:12:00,
2013-08-01 11:17:00,90.7,75.9,30.02,ESE,112,4.8,4.8,62,0.00,BKN,SCT,0.00,WeatherDisplay:10.37,2013-08-01 15:17:00,
2013-08-01 11:22:00,91.0,75.7,30.02,WNW,292,4.6,4.6,61,0.00,BKN,SCT,0.00,WeatherDisplay:10.37,2013-08-01 15:22:00,
2013-08-01 11:27:00,91.0,76.2,30.02,SSE,158,5.8,5.8,62,0.00,BKN,SCT,0.00,WeatherDisplay:10.37,2013-08-01 15:27:00,
2013-08-01 11:32:00,90.5,75.7,30.02,SE,135,5.9,5.9,62,0.00,BKN,SCT,0.00,WeatherDisplay:10.37,2013-08-01 15:32:00,
2013-08-01 11:38:00,91.4,76.1,30.02,SSE,158,4.8,4.8,61,0.00,BKN,SCT,0.00,WeatherDisplay:10.37,2013-08-01 15:38:00,
2013-08-01 11:44:00,91.8,76.4,30.02,South,180,5.8,5.8,61,0.00,BKN,SCT,0.00,WeatherDisplay:10.37,2013-08-01 15:44:00,
2013-08-01 11:50:00,91.8,75.9,30.02,SE,135,6.0,7.0,60,0.00,BKN,SCT,0.00,WeatherDisplay:10.37,2013-08-01 15:50:00,
2013-08-01 11:55:00,91.9,76.0,30.02,ESE,122,2.0,7.0,60,0.00,BKN,SCT,0.00,WeatherDisplay:10.37,2013-08-01 15:55:00,
2013-08-01 12:00:00,92.3,76.4,30.02,East,100,2.0,6.0,60,0.00,BKN,SCT,0.00,WeatherDisplay:10.37,2013-08-01 16:00:00,
2013-08-01 12:06:00,91.0,75.7,30.02,ESE,112,5.8,5.8,61,0.00,BKN,SCT,0.00,WeatherDisplay:10.37,2013-08-01 16:06:00,
2013-08-01 12:12:00,92.3,76.4,30.02,ESE,112,8.1,8.1,60,0.00,BKN,SCT,0.00,WeatherDisplay:10.37,2013-08-01 16:12:00,
2013-08-01 12:17:00,91.8,76.4,30.02,North,360,5.8,5.8,61,0.00,BKN,SCT,0.00,WeatherDisplay:10.37,2013-08-01 16:17:00,
2013-08-01 12:22:00,92.8,77.4,30.02,SSE,158,4.8,4.8,61,0.00,BKN,SCT,0.00,WeatherDisplay:10.37,2013-08-01 16:22:00,
2013-08-01 12:29:00,91.8,76.9,30.02,East,90,6.9,6.9,62,0.00,BKN,SCT,0.00,WeatherDisplay:10.37,2013-08-01 16:29:00,
2013-08-01 12:34:00,92.7,76.3,30.02,East,90,8.1,8.1,59,0.00,BKN,SCT,0.00,WeatherDisplay:10.37,2013-08-01 16:34:00,
2013-08-01 12:40:00,91.8,76.0,30.01,East,94,5.0,9.0,60,0.00,BKN,SCT,0.00,WeatherDisplay:10.37,2013-08-01 16:40:00,
2013-08-01 12:45:00,92.7,76.8,30.01,SSW,202,5.8,5.8,60,0.00,BKN,SCT,0.00,WeatherDisplay:10.37,2013-08-01 16:45:00,
2013-08-01 12:50:00,91.9,76.0,30.01,ESE,112,8.1,8.1,60,0.00,BKN,SCT,0.00,WeatherDisplay:10.37,2013-08-01 16:50:00,
2013-08-01 12:55:00,93.4,76.9,30.01,East,90,5.9,5.9,59,0.00,BKN,SCT,0.00,WeatherDisplay:10.37,2013-08-01 16:55:00,
2013-08-01 13:02:00,92.5,76.6,30.01,NE,45,5.9,5.9,60,0.00,BKN,SCT,0.00,WeatherDisplay:10.37,2013-08-01 17:02:00,
2013-08-01 13:07:00,92.3,76.9,30.01,NNE,22,4.6,4.6,61,0.00,BKN,SCT,0.00,WeatherDisplay:10.37,2013-08-01 17:07:00,
2013-08-01 13:12:00,93.2,76.7,30.01,NE,45,6.9,6.9,59,0.00,BKN,SCT,0.00,WeatherDisplay:10.37,2013-08-01 17:12:00,
2013-08-01 13:18:00,92.7,77.3,30.01,East,90,7.5,7.5,61,0.00,BKN,SCT,0.00,WeatherDisplay:10.37,2013-08-01 17:18:00,
2013-08-01 13:23:00,91.9,77.0,30.01,ESE,112,8.1,8.1,62,0.00,BKN,SCT,0.00,WeatherDisplay:10.37,2013-08-01 17:23:00,
2013-08-01 13:29:00,90.0,76.6,30.01,NE,45,4.8,4.8,65,0.00,BKN,SCT,0.00,WeatherDisplay:10.37,2013-08-01 17:29:00,
2013-08-01 13:34:00,89.8,76.9,30.01,ESE,112,6.9,6.9,66,0.00,BKN,SCT,0.00,WeatherDisplay:10.37,2013-08-01 17:34:00,
2013-08-01 13:39:00,92.3,77.4,30.00,West,270,4.6,4.6,62,0.00,BKN,SCT,0.00,WeatherDisplay:10.37,2013-08-01 17:39:00,
2013-08-01 13:44:00,91.6,76.7,30.00,SSE,158,6.9,6.9,62,0.00,BKN,SCT,0.00,WeatherDisplay:10.37,2013-08-01 17:44:00,
2013-08-01 13:50:00,91.7,76.9,30.00,SE,131,3.0,10.0,62,0.00,BKN,SCT,0.00,WeatherDisplay:10.37,2013-08-01 17:50:00,
2013-08-01 13:55:00,92.8,77.4,30.00,SE,130,3.0,7.0,61,0.00,BKN,SCT,0.00,WeatherDisplay:10.37,2013-08-01 17:55:00,
2013-08-01 14:00:00,92.6,78.2,30.00,ESE,109,3.0,10.0,63,0.00,BKN,SCT,0.00,WeatherDisplay:10.37,2013-08-01 18:00:00,
2013-08-01 14:05:00,92.0,77.6,30.00,ENE,68,3.0,7.0,63,0.00,BKN,SCT,0.00,WeatherDisplay:10.37,2013-08-01 18:05:00,
2013-08-01 14:10:00,90.4,76.6,30.00,East,98,3.0,6.0,64,0.00,BKN,SCT,0.00,WeatherDisplay:10.37,2013-08-01 18:10:00,
2013-08-01 14:15:00,91.0,77.2,30.00,ESE,104,5.0,9.0,64,0.00,BKN,SCT,0.00,WeatherDisplay:10.37,2013-08-01 18:15:00,
2013-08-01 14:21:00,90.7,76.4,30.00,East,90,8.1,8.1,63,0.00,BKN,SCT,0.00,WeatherDisplay:10.37,2013-08-01 18:21:00,
2013-08-01 14:28:00,91.4,77.0,29.99,NW,315,6.9,6.9,63,0.00,BKN,SCT,0.00,WeatherDisplay:10.37,2013-08-01 18:28:00,
2013-08-01 14:33:00,91.4,77.0,29.99,NNE,22,6.9,6.9,63,0.00,BKN,SCT,0.00,WeatherDisplay:10.37,2013-08-01 18:33:00,
2013-08-01 14:38:00,92.3,77.4,29.99,SE,135,7.5,7.5,62,0.00,BKN,SCT,0.00,WeatherDisplay:10.37,2013-08-01 18:38:00,
2013-08-01 14:43:00,90.7,76.8,29.99,East,90,5.8,5.8,64,0.00,BKN,SCT,0.00,WeatherDisplay:10.37,2013-08-01 18:43:00,
2013-08-01 14:48:00,89.1,75.8,29.99,ESE,112,5.9,5.9,65,0.00,BKN,SCT,0.00,WeatherDisplay:10.37,2013-08-01 18:48:00,
2013-08-01 14:53:00,91.2,76.8,29.99,SW,225,5.8,5.8,63,0.00,BKN,SCT,0.00,WeatherDisplay:10.37,2013-08-01 18:53:00,
2013-08-01 14:58:00,91.9,77.5,29.99,NE,45,9.2,9.2,63,0.00,BKN,SCT,0.00,WeatherDisplay:10.37,2013-08-01 18:58:00,
2013-08-01 15:03:00,92.1,77.7,29.99,ENE,68,5.9,5.9,63,0.00,BKN,SCT,0.00,WeatherDisplay:10.37,2013-08-01 19:03:00,
2013-08-01 15:08:00,90.9,76.6,29.99,SSE,158,8.0,8.0,63,0.00,BKN,SCT,0.00,WeatherDisplay:10.37,2013-08-01 19:08:00,
2013-08-01 15:14:00,90.5,76.7,29.99,NNE,22,8.5,8.5,64,0.00,BKN,SCT,0.00,WeatherDisplay:10.37,2013-08-01 19:14:00,
2013-08-01 15:19:00,91.6,77.7,29.99,South,180,5.8,5.8,64,0.00,BKN,SCT,0.00,WeatherDisplay:10.37,2013-08-01 19:19:00,
2013-08-01 15:25:00,91.5,77.6,29.99,ESE,120,5.0,9.0,64,0.00,BKN,SCT,0.00,WeatherDisplay:10.37,2013-08-01 19:25:00,
2013-08-01 15:31:00,91.2,77.3,29.98,ENE,68,7.5,7.5,64,0.00,BKN,SCT,0.00,WeatherDisplay:10.37,2013-08-01 19:31:00,
2013-08-01 15:36:00,90.5,77.6,29.98,SE,135,5.9,5.9,66,0.00,BKN,SCT,0.00,WeatherDisplay:10.37,2013-08-01 19:36:00,
2013-08-01 15:41:00,91.0,77.1,29.98,South,180,6.9,6.9,64,0.00,BKN,SCT,0.00,WeatherDisplay:10.37,2013-08-01 19:41:00,
2013-08-01 15:48:00,91.0,77.1,29.98,SW,225,6.9,6.9,64,0.00,BKN,SCT,0.00,WeatherDisplay:10.37,2013-08-01 19:48:00,
2013-08-01 15:53:00,91.2,76.8,29.98,SE,135,4.6,4.6,63,0.00,BKN,SCT,0.00,WeatherDisplay:10.37,2013-08-01 19:53:00,
2013-08-01 15:58:00,91.9,76.0,29.98,NNE,22,5.8,5.8,60,0.00,BKN,SCT,0.00,WeatherDisplay:10.37,2013-08-01 19:58:00,
2013-08-01 16:04:00,90.9,75.1,29.97,East,90,6.9,6.9,60,0.00,BKN,SCT,0.00,WeatherDisplay:10.37,2013-08-01 20:04:00,
2013-08-01 16:09:00,90.7,74.9,29.97,South,180,7.5,7.5,60,0.00,SCT,,0.00,WeatherDisplay:10.37,2013-08-01 20:09:00,
2013-08-01 16:15:00,91.0,75.2,29.97,SE,138,5.0,8.0,60,0.00,SCT,SCT,0.00,WeatherDisplay:10.37,2013-08-01 20:15:00,
2013-08-01 16:20:00,90.9,75.6,29.97,NE,45,5.9,5.9,61,0.00,SCT,,0.00,WeatherDisplay:10.37,2013-08-01 20:20:00,
2013-08-01 16:25:00,91.0,74.2,29.97,ESE,112,8.1,8.1,58,0.00,SCT,,0.00,WeatherDisplay:10.37,2013-08-01 20:25:00,
2013-08-01 16:30:00,91.2,74.9,29.96,SSW,202,5.9,5.9,59,0.00,SCT,,0.00,WeatherDisplay:10.37,2013-08-01 20:30:00,
2013-08-01 16:35:00,90.7,74.4,29.96,South,180,5.8,5.8,59,0.00,SCT,,0.00,WeatherDisplay:10.37,2013-08-01 20:35:00,
2013-08-01 16:42:00,91.6,75.2,29.95,NE,45,8.1,8.1,59,0.00,SCT,,0.00,WeatherDisplay:10.37,2013-08-01 20:42:00,
2013-08-01 16:44:00,91.9,75.0,29.95,NNE,22,6.9,6.9,58,0.00,SCT,,0.00,WeatherDisplay:10.37,2013-08-01 20:44:00,
2013-08-01 16:50:00,92.0,77.1,29.95,ENE,60,2.0,9.0,62,0.00,SCT,SCT,0.00,WeatherDisplay:10.37,2013-08-01 20:50:00,
2013-08-01 16:55:00,89.3,77.8,29.95,NE,54,5.0,11.0,69,0.00,SCT,SCT,0.00,WeatherDisplay:10.37,2013-08-01 20:55:00,
2013-08-01 17:00:00,88.4,76.9,29.95,East,80,7.0,10.0,69,0.00,SCT,SCT,0.00,WeatherDisplay:10.37,2013-08-01 21:00:00,
2013-08-01 17:05:00,89.2,78.1,29.95,East,87,5.0,7.0,70,0.00,SCT,SCT,0.00,WeatherDisplay:10.37,2013-08-01 21:05:00,
2013-08-01 17:10:00,89.6,77.6,29.95,ESE,103,3.0,8.0,68,0.00,SCT,SCT,0.00,WeatherDisplay:10.37,2013-08-01 21:10:00,
2013-08-01 17:15:00,89.8,77.8,29.96,ESE,112,6.9,6.9,68,0.00,SCT,,0.00,WeatherDisplay:10.37,2013-08-01 21:15:00,
2013-08-01 17:20:00,91.2,77.8,29.96,ENE,68,8.0,8.0,65,0.00,SCT,,0.00,WeatherDisplay:10.37,2013-08-01 21:20:00,
2013-08-01 17:25:00,92.1,78.2,29.95,NNW,338,5.4,5.4,64,0.00,SCT,,0.00,WeatherDisplay:10.37,2013-08-01 21:25:00,
2013-08-01 17:30:00,90.9,76.6,29.95,ESE,112,9.5,9.5,63,0.00,SCT,,0.00,WeatherDisplay:10.37,2013-08-01 21:30:00,
2013-08-01 17:35:00,91.0,77.1,29.95,SE,135,6.9,6.9,64,0.00,SCT,,0.00,WeatherDisplay:10.37,2013-08-01 21:35:00,
2013-08-01 17:41:00,91.0,77.1,29.95,East,90,9.2,9.2,64,0.00,SCT,,0.00,WeatherDisplay:10.37,2013-08-01 21:41:00,
2013-08-01 17:47:00,92.1,78.2,29.95,East,90,4.6,4.6,64,0.00,SCT,,0.00,WeatherDisplay:10.37,2013-08-01 21:47:00,
2013-08-01 17:53:00,91.8,77.9,29.95,SE,135,8.1,8.1,64,0.00,SCT,,0.00,WeatherDisplay:10.37,2013-08-01 21:53:00,
2013-08-01 17:58:00,91.4,77.0,29.95,NE,45,9.0,9.0,63,0.00,SCT,,0.00,WeatherDisplay:10.37,2013-08-01 21:58:00,
2013-08-01 18:04:00,90.0,75.7,29.96,NE,45,6.9,6.9,63,0.00,SCT,,0.00,WeatherDisplay:10.37,2013-08-01 22:04:00,
2013-08-01 18:09:00,90.5,76.2,29.96,South,180,6.9,6.9,63,0.00,SCT,,0.00,WeatherDisplay:10.37,2013-08-01 22:09:00,
2013-08-01 18:14:00,90.3,76.5,29.96,East,90,5.9,5.9,64,0.00,SCT,,0.00,WeatherDisplay:10.37,2013-08-01 22:14:00,
2013-08-01 18:19:00,90.3,76.9,29.96,West,270,6.9,6.9,65,0.00,SCT,,0.00,WeatherDisplay:10.37,2013-08-01 22:19:00,
2013-08-01 18:25:00,90.2,76.3,29.96,ESE,112,5.0,7.0,64,0.00,SCT,SCT,0.00,WeatherDisplay:10.37,2013-08-01 22:25:00,
2013-08-01 18:30:00,89.6,76.7,29.96,SE,141,5.0,7.0,66,0.00,SCT,SCT,0.00,WeatherDisplay:10.37,2013-08-01 22:30:00,
2013-08-01 18:35:00,89.1,76.7,29.96,SE,138,5.0,7.0,67,0.00,SCT,SCT,0.00,WeatherDisplay:10.37,2013-08-01 22:35:00,
2013-08-01 18:39:00,90.0,77.5,29.96,ENE,69,2.0,5.0,67,0.00,SCT,SCT,0.00,WeatherDisplay:10.37,2013-08-01 22:39:00,
2013-08-01 18:45:00,89.8,76.9,29.96,ENE,68,4.3,4.3,66,0.00,SCT,,0.00,WeatherDisplay:10.37,2013-08-01 22:45:00,
2013-08-01 18:50:00,89.4,76.1,29.96,West,270,5.9,5.9,65,0.00,SCT,,0.00,WeatherDisplay:10.37,2013-08-01 22:50:00,
2013-08-01 18:55:00,88.7,75.4,29.96,West,270,5.8,5.8,65,0.00,SCT,,0.00,WeatherDisplay:10.37,2013-08-01 22:55:00,
2013-08-01 19:00:00,88.3,75.9,29.96,SE,135,6.9,6.9,67,0.00,SCT,,0.00,WeatherDisplay:10.37,2013-08-01 23:00:00,
2013-08-01 19:05:00,88.3,75.0,29.97,NNE,22,4.6,4.6,65,0.00,SCT,,0.00,WeatherDisplay:10.37,2013-08-01 23:05:00,
2013-08-01 19:10:00,87.8,75.9,29.97,NNE,22,4.6,4.6,68,0.00,SCT,,0.00,WeatherDisplay:10.37,2013-08-01 23:10:00,
2013-08-01 19:15:00,87.8,75.9,29.97,SE,135,3.8,3.8,68,0.00,SCT,,0.00,WeatherDisplay:10.37,2013-08-01 23:15:00,
2013-08-01 19:21:00,87.8,75.5,29.97,ENE,68,3.5,3.5,67,0.00,SCT,,0.00,WeatherDisplay:10.37,2013-08-01 23:21:00,
2013-08-01 19:26:00,87.6,75.3,29.97,ESE,112,5.9,5.9,67,0.00,SCT,,0.00,WeatherDisplay:10.37,2013-08-01 23:26:00,
2013-08-01 19:31:00,86.5,74.7,29.97,ESE,112,3.5,3.5,68,0.00,SCT,,0.00,WeatherDisplay:10.37,2013-08-01 23:31:00,
2013-08-01 19:36:00,85.8,74.4,29.97,ENE,68,5.8,5.8,69,0.00,SCT,,0.00,WeatherDisplay:10.37,2013-08-01 23:36:00,
2013-08-01 19:41:00,85.3,74.0,29.98,NE,45,4.8,4.8,69,0.00,SCT,,0.00,WeatherDisplay:10.37,2013-08-01 23:41:00,
2013-08-01 19:47:00,84.7,73.8,29.98,SW,225,3.8,3.8,70,0.00,SCT,,0.00,WeatherDisplay:10.37,2013-08-01 23:47:00,
2013-08-01 19:52:00,84.4,74.0,29.98,East,90,5.8,5.8,71,0.00,SCT,,0.00,WeatherDisplay:10.37,2013-08-01 23:52:00,
2013-08-01 19:57:00,84.0,73.6,29.98,ENE,68,5.8,5.8,71,0.00,SCT,,0.00,WeatherDisplay:10.37,2013-08-01 23:57:00,
2013-08-01 20:02:00,83.8,73.4,29.98,ENE,68,5.8,5.8,71,0.00,SCT,,0.00,WeatherDisplay:10.37,2013-08-02 00:02:00,
2013-08-01 20:07:00,83.7,73.7,29.98,South,180,4.6,4.6,72,0.00,SCT,,0.00,WeatherDisplay:10.37,2013-08-02 00:07:00,
2013-08-01 20:12:00,83.7,74.1,29.98,ESE,112,4.8,4.8,73,0.00,SCT,,0.00,WeatherDisplay:10.37,2013-08-02 00:12:00,
2013-08-01 20:18:00,83.3,74.1,29.98,WSW,248,4.3,4.3,74,0.00,SCT,,0.00,WeatherDisplay:10.37,2013-08-02 00:18:00,
2013-08-01 20:23:00,83.1,73.9,29.98,NNE,22,4.6,4.6,74,0.00,SCT,,0.00,WeatherDisplay:10.37,2013-08-02 00:23:00,
2013-08-01 20:28:00,83.1,73.9,29.98,North,360,4.6,4.6,74,0.00,SCT,,0.00,WeatherDisplay:10.37,2013-08-02 00:28:00,
2013-08-01 20:33:00,83.1,75.5,29.98,ESE,112,6.9,6.9,78,0.00,SCT,,0.00,WeatherDisplay:10.37,2013-08-02 00:33:00,
2013-08-01 20:38:00,82.9,75.3,29.98,South,180,8.1,8.1,78,0.00,SCT,,0.00,WeatherDisplay:10.37,2013-08-02 00:38:00,
2013-08-01 20:43:00,82.6,75.4,29.98,East,90,5.8,5.8,79,0.00,SCT,,0.00,WeatherDisplay:10.37,2013-08-02 00:43:00,
2013-08-01 20:49:00,82.4,76.0,29.98,ESE,112,8.1,8.1,81,0.00,SCT,,0.00,WeatherDisplay:10.37,2013-08-02 00:49:00,
2013-08-01 20:54:00,82.2,75.8,29.98,East,90,5.8,5.8,81,0.00,SCT,,0.00,WeatherDisplay:10.37,2013-08-02 00:54:00,
2013-08-01 20:59:00,82.0,75.6,29.98,NNE,22,4.8,4.8,81,0.00,SCT,,0.00,WeatherDisplay:10.37,2013-08-02 00:59:00,
2013-08-01 21:04:00,82.0,75.6,29.99,SSE,158,5.8,5.8,81,0.00,SCT,,0.00,WeatherDisplay:10.37,2013-08-02 01:04:00,
2013-08-01 21:09:00,81.9,75.5,29.99,NNE,22,5.8,5.8,81,0.00,SCT,,0.00,WeatherDisplay:10.37,2013-08-02 01:09:00,
2013-08-01 21:15:00,81.7,75.3,29.99,East,80,3.0,7.0,81,0.00,SCT,SCT,0.00,WeatherDisplay:10.37,2013-08-02 01:15:00,
2013-08-01 21:19:00,81.5,75.1,29.99,ENE,77,3.0,7.0,81,0.00,SCT,SCT,0.00,WeatherDisplay:10.37,2013-08-02 01:19:00,
2013-08-01 21:25:00,81.5,75.1,29.99,East,95,5.0,7.0,81,0.00,SCT,SCT,0.00,WeatherDisplay:10.37,2013-08-02 01:25:00,
2013-08-01 21:30:00,81.5,75.1,29.99,ESE,109,2.0,7.0,81,0.00,SCT,SCT,0.00,WeatherDisplay:10.37,2013-08-02 01:30:00,
2013-08-01 21:35:00,81.0,75.0,29.99,ENE,61,3.0,7.0,82,0.00,SCT,SCT,0.00,WeatherDisplay:10.37,2013-08-02 01:35:00,
2013-08-01 21:40:00,80.6,74.9,29.99,ENE,74,3.0,7.0,83,0.00,SCT,SCT,0.00,WeatherDisplay:10.37,2013-08-02 01:40:00,
2013-08-01 21:45:00,80.4,74.8,29.99,ESE,112,5.8,5.8,83,0.00,SCT,,0.00,WeatherDisplay:10.37,2013-08-02 01:45:00,
2013-08-01 21:50:00,80.4,74.8,29.99,NE,45,6.9,6.9,83,0.00,SCT,,0.00,WeatherDisplay:10.37,2013-08-02 01:50:00,
2013-08-01 21:55:00,80.4,74.8,29.99,East,90,4.6,4.6,83,0.00,SCT,,0.00,WeatherDisplay:10.37,2013-08-02 01:55:00,
2013-08-01 22:00:00,80.4,74.8,29.99,ESE,112,3.5,3.5,83,0.00,SCT,,0.00,WeatherDisplay:10.37,2013-08-02 02:00:00,
2013-08-01 22:05:00,80.4,74.8,29.99,East,90,6.9,6.9,83,0.00,FEW,SCT,0.00,WeatherDisplay:10.37,2013-08-02 02:05:00,
2013-08-01 22:10:00,80.4,74.8,29.99,SSE,158,4.3,4.3,83,0.00,FEW,SCT,0.00,WeatherDisplay:10.37,2013-08-02 02:10:00,
2013-08-01 22:15:00,80.4,74.8,30.00,East,90,5.8,5.8,83,0.00,FEW,SCT,0.00,WeatherDisplay:10.37,2013-08-02 02:15:00,
2013-08-01 22:21:00,80.6,75.0,30.00,ESE,112,5.8,5.8,83,0.00,FEW,SCT,0.00,WeatherDisplay:10.37,2013-08-02 02:21:00,
2013-08-01 22:27:00,80.8,75.2,30.00,East,90,4.8,4.8,83,0.00,FEW,SCT,0.00,WeatherDisplay:10.37,2013-08-02 02:27:00,
2013-08-01 22:32:00,80.6,75.0,30.00,SSW,202,5.4,5.4,83,0.00,FEW,SCT,0.00,WeatherDisplay:10.37,2013-08-02 02:32:00,
2013-08-01 22:37:00,80.6,75.0,30.00,WSW,248,5.8,5.8,83,0.00,FEW,SCT,0.00,WeatherDisplay:10.37,2013-08-02 02:37:00,
2013-08-01 22:42:00,80.6,75.0,30.00,East,90,5.8,5.8,83,0.00,FEW,SCT,0.00,WeatherDisplay:10.37,2013-08-02 02:42:00,
2013-08-01 22:47:00,80.6,75.0,30.00,ENE,68,4.8,4.8,83,0.00,FEW,SCT,0.00,WeatherDisplay:10.37,2013-08-02 02:47:00,
2013-08-01 22:52:00,80.6,75.0,29.99,East,90,3.5,3.5,83,0.00,FEW,SCT,0.00,WeatherDisplay:10.37,2013-08-02 02:52:00,
2013-08-01 22:58:00,80.4,74.8,29.99,ESE,112,5.9,5.9,83,0.00,FEW,SCT,0.00,WeatherDisplay:10.37,2013-08-02 02:58:00,
2013-08-01 23:03:00,80.4,74.8,29.99,ENE,68,3.8,3.8,83,0.00,FEW,SCT,0.00,WeatherDisplay:10.37,2013-08-02 03:03:00,
2013-08-01 23:08:00,80.4,74.8,29.99,NNW,338,8.1,8.1,83,0.00,SCT,,0.00,WeatherDisplay:10.37,2013-08-02 03:08:00,
2013-08-01 23:14:00,80.4,74.8,29.99,NNE,22,5.8,5.8,83,0.00,SCT,,0.00,WeatherDisplay:10.37,2013-08-02 03:14:00,
2013-08-01 23:19:00,80.4,74.0,29.99,NNE,22,5.8,5.8,81,0.00,SCT,,0.00,WeatherDisplay:10.37,2013-08-02 03:19:00,
2013-08-01 23:24:00,80.4,73.7,29.99,East,90,6.9,6.9,80,0.00,SCT,,0.00,WeatherDisplay:10.37,2013-08-02 03:24:00,
2013-08-01 23:29:00,80.6,73.9,29.99,ENE,68,6.9,6.9,80,0.00,SCT,,0.00,WeatherDisplay:10.37,2013-08-02 03:29:00,
2013-08-01 23:34:00,80.6,74.2,29.99,NE,45,6.9,6.9,81,0.00,SCT,,0.00,WeatherDisplay:10.37,2013-08-02 03:34:00,
2013-08-01 23:39:00,80.6,73.9,29.99,East,90,6.9,6.9,80,0.00,SCT,,0.00,WeatherDisplay:10.37,2013-08-02 03:39:00,
2013-08-01 23:45:00,80.6,73.5,29.99,East,94,1.0,7.0,79,0.00,SCT,SCT,0.00,WeatherDisplay:10.37,2013-08-02 03:45:00,
2013-08-01 23:50:00,80.5,73.4,29.98,East,100,3.0,5.0,79,0.00,SCT,SCT,0.00,WeatherDisplay:10.37,2013-08-02 03:50:00,
2013-08-01 23:55:00,80.4,73.3,29.98,ESE,112,3.0,7.0,79,0.00,SCT,SCT,0.00,WeatherDisplay:10.37,2013-08-02 03:55:00,